createdAt,value
2018-08-13T00:00:44.842Z,95324.73
2018-08-13T00:03:11.521Z,95317.48
2018-08-13T00:05:38.161Z,95313.83
2018-08-13T00:08:04.839Z,95322.52
2018-08-13T00:10:31.474Z,95315.59
2018-08-13T00:12:58.161Z,95316.11
2018-08-13T00:15:24.822Z,95312.05
2018-08-13T00:17:51.574Z,95314.67
2018-08-13T00:20:18.207Z,95320.24
2018-08-13T00:22:44.900Z,95317.70
2018-08-13T00:25:11.537Z,95318.39
2018-08-13T00:27:38.216Z,95337.80
2018-08-13T00:30:04.822Z,95332.62
2018-08-13T00:32:31.501Z,95337.45
2018-08-13T00:34:58.130Z,95332.51
2018-08-13T00:37:24.764Z,95335.70
2018-08-13T00:39:51.409Z,95334.05
2018-08-13T00:42:18.073Z,95328.34
2018-08-13T00:44:44.765Z,95331.79
2018-08-13T00:47:11.473Z,95331.66
2018-08-13T00:49:38.153Z,95330.56
2018-08-13T00:52:04.840Z,95334.11
2018-08-13T00:54:31.526Z,95336.98
2018-08-13T00:56:58.172Z,95334.70
2018-08-13T00:59:24.816Z,95328.84
2018-08-13T01:01:51.457Z,95327.82
2018-08-13T01:04:18.133Z,95329.73
2018-08-13T01:06:44.818Z,95320.23
2018-08-13T01:09:11.449Z,95326.19
2018-08-13T01:11:38.194Z,95323.19
2018-08-13T01:14:04.842Z,95320.40
2018-08-13T01:16:31.511Z,95321.93
2018-08-13T01:18:58.110Z,95315.59
2018-08-13T01:21:24.766Z,95317.20
2018-08-13T01:23:51.395Z,95315.89
2018-08-13T01:26:18.051Z,95318.12
2018-08-13T01:28:44.709Z,95308.77
2018-08-13T01:31:11.347Z,95310.03
2018-08-13T01:33:37.988Z,95311.08
2018-08-13T01:36:04.654Z,95309.41
2018-08-13T01:38:31.276Z,95312.23
2018-08-13T01:40:57.915Z,95310.12
2018-08-13T01:43:24.548Z,95311.17
2018-08-13T01:45:51.184Z,95298.48
2018-08-13T01:48:17.839Z,95307.21
2018-08-13T01:50:44.595Z,95304.43
2018-08-13T01:53:11.232Z,95308.77
2018-08-13T01:55:37.881Z,95309.52
2018-08-13T01:58:04.508Z,95310.03
2018-08-13T02:00:31.153Z,95307.80
2018-08-13T02:02:57.796Z,95305.56
2018-08-13T02:05:24.427Z,95307.13
2018-08-13T02:07:51.061Z,95306.75
2018-08-13T02:10:17.698Z,95300.93
2018-08-13T02:12:44.348Z,95295.78
2018-08-13T02:15:10.999Z,95297.89
2018-08-13T02:17:37.621Z,95299.33
2018-08-13T02:20:04.260Z,95292.70
2018-08-13T02:22:30.900Z,95299.07
2018-08-13T02:24:57.549Z,95295.78
2018-08-13T02:27:24.182Z,95302.78
2018-08-13T02:29:50.820Z,95304.30
2018-08-13T02:32:17.462Z,95303.45
2018-08-13T02:34:44.100Z,95302.06
2018-08-13T02:37:10.735Z,95305.61
2018-08-13T02:39:37.451Z,95299.80
2018-08-13T02:42:04.110Z,95309.41
2018-08-13T02:44:30.750Z,95304.94
2018-08-13T02:49:24.029Z,95311.18
2018-08-13T02:51:50.701Z,95311.18
2018-08-13T02:54:17.327Z,95308.94
2018-08-13T02:56:43.964Z,95311.72
2018-08-13T02:59:10.603Z,95316.66
2018-08-13T03:01:37.259Z,95317.04
2018-08-13T03:04:03.896Z,95311.47
2018-08-13T03:06:30.544Z,95311.64
2018-08-13T03:08:57.183Z,95316.45
2018-08-13T03:11:23.820Z,95311.84
2018-08-13T03:13:50.464Z,95313.28
2018-08-13T03:16:17.105Z,95310.06
2018-08-13T03:18:43.749Z,95317.09
2018-08-13T03:21:10.394Z,95321.34
2018-08-13T03:23:37.019Z,95311.95
2018-08-13T03:26:03.662Z,95319.20
2018-08-13T03:28:30.344Z,95316.88
2018-08-13T03:30:56.974Z,95314.09
2018-08-13T03:33:23.606Z,95321.47
2018-08-13T03:35:50.238Z,95319.38
2018-08-13T03:38:16.881Z,95326.61
2018-08-13T03:40:43.545Z,95326.03
2018-08-13T03:43:10.141Z,95326.12
2018-08-13T03:45:36.782Z,95330.45
2018-08-13T03:48:03.419Z,95332.05
2018-08-13T03:50:30.053Z,95333.23
2018-08-13T03:52:56.700Z,95329.02
2018-08-13T03:55:23.350Z,95337.73
2018-08-13T03:57:49.982Z,95337.16
2018-08-13T04:00:16.675Z,95330.08
2018-08-13T04:02:43.364Z,95327.38
2018-08-13T04:05:10.042Z,95329.92
2018-08-13T04:07:36.688Z,95330.31
2018-08-13T04:10:03.331Z,95327.33
2018-08-13T04:12:29.973Z,95327.03
2018-08-13T04:14:56.653Z,95315.22
2018-08-13T04:17:23.255Z,95326.60
2018-08-13T04:19:49.900Z,95319.73
2018-08-13T04:22:16.538Z,95319.84
2018-08-13T04:24:43.218Z,95317.20
2018-08-13T04:27:09.825Z,95319.38
2018-08-13T04:29:36.474Z,95320.75
2018-08-13T04:32:03.097Z,95318.56
2018-08-13T04:34:29.726Z,95312.09
2018-08-13T04:36:56.373Z,95312.94
2018-08-13T04:39:23.015Z,95317.34
2018-08-13T04:41:49.660Z,95322.21
2018-08-13T04:44:16.297Z,95315.97
2018-08-13T04:46:42.933Z,95314.61
2018-08-13T04:49:09.567Z,95306.14
2018-08-13T04:51:36.199Z,95309.62
2018-08-13T04:54:02.829Z,95308.25
2018-08-13T04:56:29.477Z,95317.21
2018-08-13T04:58:56.163Z,95319.27
2018-08-13T05:01:22.749Z,95321.50
2018-08-13T05:03:49.419Z,95319.09
2018-08-13T05:06:16.054Z,95315.88
2018-08-13T05:08:42.691Z,95321.74
2018-08-13T05:11:09.331Z,95317.47
2018-08-13T05:13:35.979Z,95322.44
2018-08-13T05:16:02.627Z,95323.41
2018-08-13T05:18:29.314Z,95328.13
2018-08-13T05:20:55.957Z,95320.70
2018-08-13T05:23:22.618Z,95318.70
2018-08-13T05:25:49.272Z,95324.84
2018-08-13T05:28:15.909Z,95322.28
2018-08-13T05:30:42.551Z,95325.14
2018-08-13T05:33:09.193Z,95329.73
2018-08-13T05:35:35.832Z,95319.02
2018-08-13T05:38:02.551Z,95320.27
2018-08-13T05:40:29.163Z,95331.09
2018-08-13T05:42:56.079Z,95331.96
2018-08-13T05:45:22.743Z,95326.81
2018-08-13T05:47:49.381Z,95328.09
2018-08-13T05:50:16.028Z,95320.30
2018-08-13T05:52:42.692Z,95321.87
2018-08-13T05:55:09.351Z,95316.45
2018-08-13T05:57:36.109Z,95312.25
2018-08-13T06:00:02.807Z,95300.36
2018-08-13T06:02:29.462Z,95308.08
2018-08-13T06:04:56.108Z,95313.11
2018-08-13T06:07:22.755Z,95312.79
2018-08-13T06:09:49.395Z,95315.32
2018-08-13T06:12:16.104Z,95309.56
2018-08-13T06:14:42.738Z,95309.69
2018-08-13T06:17:09.408Z,95304.34
2018-08-13T06:19:36.079Z,95305.37
2018-08-13T06:22:02.714Z,95300.67
2018-08-13T06:24:29.366Z,95303.41
2018-08-13T06:26:56.005Z,95302.45
2018-08-13T06:29:22.699Z,95298.37
2018-08-13T06:31:49.412Z,95298.09
2018-08-13T06:34:16.018Z,95299.34
2018-08-13T06:36:42.831Z,95299.48
2018-08-13T06:39:09.667Z,95302.53
2018-08-13T06:41:36.362Z,95305.18
2018-08-13T06:44:03.009Z,95299.66
2018-08-13T06:46:29.656Z,95281.73
2018-08-13T06:48:56.364Z,95288.50
2018-08-13T06:51:23.064Z,95296.81
2018-08-13T06:53:49.778Z,95291.66
2018-08-13T06:56:16.395Z,95295.06
2018-08-13T06:58:43.028Z,95294.16
2018-08-13T07:01:09.702Z,95297.06
2018-08-13T07:03:36.358Z,95292.56
2018-08-13T07:06:03.059Z,95292.56
2018-08-13T07:08:29.707Z,95289.59
2018-08-13T07:10:56.345Z,95286.56
2018-08-13T07:13:22.994Z,95287.79
2018-08-13T07:15:49.648Z,95285.52
2018-08-13T07:18:16.284Z,95287.36
2018-08-13T07:20:42.922Z,95288.87
2018-08-13T07:23:09.618Z,95288.05
2018-08-13T07:25:36.257Z,95283.86
2018-08-13T07:28:03.939Z,95288.31
2018-08-13T07:30:30.542Z,95287.13
2018-08-13T07:32:57.203Z,95281.06
2018-08-13T07:35:23.853Z,95282.37
2018-08-13T07:37:50.490Z,95281.56
2018-08-13T07:40:17.155Z,95281.39
2018-08-13T07:42:43.801Z,95268.67
2018-08-13T07:45:10.438Z,95280.88
2018-08-13T07:47:37.100Z,95281.00
2018-08-13T07:50:03.808Z,95275.25
2018-08-13T07:52:30.568Z,95275.89
2018-08-13T07:54:58.460Z,95278.36
2018-08-13T07:57:25.148Z,95275.88
2018-08-13T07:59:51.794Z,95275.30
2018-08-13T08:02:18.443Z,95276.06
2018-08-13T08:04:45.144Z,95280.02
2018-08-13T08:07:11.787Z,95279.43
2018-08-13T08:09:38.476Z,95276.81
2018-08-13T08:12:05.122Z,95260.11
2018-08-13T08:14:31.792Z,95276.20
2018-08-13T08:16:58.399Z,95277.89
2018-08-13T08:19:25.080Z,95270.74
2018-08-13T08:21:51.747Z,95265.34
2018-08-13T08:24:18.418Z,95264.91
2018-08-13T08:26:45.051Z,95263.77
2018-08-13T08:29:11.742Z,95257.75
2018-08-13T08:31:38.344Z,95258.51
2018-08-13T08:34:05.000Z,95258.59
2018-08-13T08:36:31.707Z,95256.73
2018-08-13T08:38:58.374Z,95253.13
2018-08-13T08:41:25.065Z,95254.09
2018-08-13T08:43:51.720Z,95241.98
2018-08-13T08:46:18.356Z,95238.46
2018-08-13T08:48:45.009Z,95231.86
2018-08-13T08:51:11.644Z,95228.46
2018-08-13T08:53:38.336Z,95228.83
2018-08-13T08:56:04.950Z,95229.48
2018-08-13T08:58:31.597Z,95223.55
2018-08-13T09:00:58.271Z,95213.23
2018-08-13T09:03:24.920Z,95222.08
2018-08-13T09:05:51.616Z,95218.36
2018-08-13T09:08:18.339Z,95215.02
2018-08-13T09:10:45.018Z,95211.34
2018-08-13T09:13:11.646Z,95206.95
2018-08-13T09:15:38.281Z,95211.09
2018-08-13T09:18:04.976Z,95209.74
2018-08-13T09:20:31.640Z,95208.46
2018-08-13T09:22:58.287Z,95212.07
2018-08-13T09:25:25.016Z,95209.53
2018-08-13T09:27:51.601Z,95207.63
2018-08-13T09:30:18.241Z,95200.42
2018-08-13T09:32:44.891Z,95206.69
2018-08-13T09:35:11.660Z,95205.53
2018-08-13T09:37:38.332Z,95213.94
2018-08-13T09:40:04.982Z,95199.98
2018-08-13T09:42:31.756Z,95202.67
2018-08-13T09:44:58.424Z,95202.06
2018-08-13T09:47:25.064Z,95197.91
2018-08-13T09:49:51.704Z,95197.94
2018-08-13T09:52:18.366Z,95198.70
2018-08-13T09:54:45.000Z,95187.04
2018-08-13T09:57:11.639Z,95188.30
2018-08-13T09:59:40.231Z,95179.34
2018-08-13T10:02:06.833Z,95172.68
2018-08-13T10:04:33.522Z,95176.17
2018-08-13T10:07:00.189Z,95173.75
2018-08-13T10:09:26.852Z,95165.98
2018-08-13T10:11:53.528Z,95162.45
2018-08-13T10:14:20.188Z,95159.34
2018-08-13T10:16:46.900Z,95162.23
2018-08-13T10:19:13.476Z,95163.42
2018-08-13T10:21:40.135Z,95159.98
2018-08-13T10:24:06.777Z,95164.09
2018-08-13T10:26:33.437Z,95168.33
2018-08-13T10:29:00.087Z,95164.25
2018-08-13T10:31:26.735Z,95159.84
2018-08-13T10:33:53.379Z,95155.39
2018-08-13T10:36:20.025Z,95158.79
2018-08-13T10:38:46.716Z,95164.33
2018-08-13T10:41:13.320Z,95155.20
2018-08-13T10:43:40.003Z,95148.82
2018-08-13T10:46:06.643Z,95150.62
2018-08-13T10:48:33.369Z,95146.77
2018-08-13T10:51:00.013Z,95147.09
2018-08-13T10:53:26.682Z,95143.16
2018-08-13T10:55:53.372Z,95140.91
2018-08-13T10:58:19.977Z,95137.98
2018-08-13T11:00:46.629Z,95127.05
2018-08-13T11:03:13.273Z,95139.48
2018-08-13T11:05:39.895Z,95134.33
2018-08-13T11:08:06.542Z,95132.31
2018-08-13T11:10:33.294Z,95129.91
2018-08-13T11:13:03.376Z,95128.02
2018-08-13T11:15:30.022Z,95123.08
2018-08-13T11:17:56.676Z,95113.91
2018-08-13T11:20:23.303Z,95126.89
2018-08-13T11:22:50.064Z,95123.39
2018-08-13T11:25:16.740Z,95120.99
2018-08-13T11:27:43.370Z,95121.67
2018-08-13T11:30:10.014Z,95119.86
2018-08-13T11:32:36.667Z,95112.30
2018-08-13T11:35:03.327Z,95110.47
2018-08-13T11:37:30.035Z,95110.85
2018-08-13T11:39:56.646Z,95111.94
2018-08-13T11:42:23.337Z,95102.66
2018-08-13T11:44:51.133Z,95098.63
2018-08-13T11:47:17.849Z,95095.73
2018-08-13T11:49:44.508Z,95100.66
2018-08-13T11:52:11.175Z,95091.16
2018-08-13T11:54:42.347Z,95091.25
2018-08-13T11:57:09.036Z,95096.00
2018-08-13T11:59:35.680Z,95084.33
2018-08-13T12:02:02.348Z,95081.73
2018-08-13T12:04:29.009Z,95079.88
2018-08-13T12:06:55.661Z,95077.47
2018-08-13T12:09:22.324Z,95080.98
2018-08-13T12:11:49.008Z,95080.39
2018-08-13T12:14:15.646Z,95073.91
2018-08-13T12:16:42.342Z,95075.53
2018-08-13T12:19:08.986Z,95073.02
2018-08-13T12:21:35.680Z,95071.27
2018-08-13T12:24:02.336Z,95062.79
2018-08-13T12:26:29.035Z,95073.36
2018-08-13T12:28:55.665Z,95072.08
2018-08-13T12:31:22.803Z,95073.90
2018-08-13T12:33:49.624Z,95068.03
2018-08-13T12:36:16.463Z,95072.00
2018-08-13T12:38:43.105Z,95061.84
2018-08-13T12:43:36.481Z,95064.48
2018-08-13T12:46:03.128Z,95061.25
2018-08-13T12:48:29.805Z,95065.06
2018-08-13T12:50:56.468Z,95054.24
2018-08-13T12:53:23.110Z,95057.67
2018-08-13T12:55:49.794Z,95054.24
2018-08-13T12:58:16.443Z,95053.82
2018-08-13T13:00:43.127Z,95053.59
2018-08-13T13:03:09.776Z,95044.47
2018-08-13T13:05:36.519Z,95041.06
2018-08-13T13:08:03.202Z,95047.75
2018-08-13T13:10:30.152Z,95034.47
2018-08-13T13:12:56.834Z,95039.09
2018-08-13T13:15:23.531Z,95029.47
2018-08-13T13:17:50.168Z,95029.86
2018-08-13T13:20:16.812Z,95029.95
2018-08-13T13:22:43.511Z,95024.66
2018-08-13T13:25:10.155Z,95027.61
2018-08-13T13:27:36.831Z,95025.88
2018-08-13T13:30:03.469Z,95024.74
2018-08-13T13:32:30.128Z,95029.89
2018-08-13T13:34:56.766Z,95031.80
2018-08-13T13:37:23.415Z,95026.60
2018-08-13T13:39:50.054Z,95018.64
2018-08-13T13:42:16.782Z,95020.91
2018-08-13T13:44:43.463Z,95019.76
2018-08-13T13:47:10.159Z,95021.22
2018-08-13T13:49:36.803Z,95028.38
2018-08-13T13:52:03.454Z,95011.45
2018-08-13T13:54:30.105Z,95013.16
2018-08-13T13:56:56.740Z,95008.63
2018-08-13T13:59:23.393Z,95014.11
2018-08-13T14:01:50.050Z,95012.78
2018-08-13T14:04:16.711Z,95012.33
2018-08-13T14:06:43.353Z,95009.42
2018-08-13T14:09:10.030Z,95001.39
2018-08-13T14:11:36.723Z,95003.22
2018-08-13T14:14:03.370Z,94976.63
2018-08-13T14:16:30.012Z,94996.13
2018-08-13T14:18:56.909Z,94988.98
2018-08-13T14:21:23.536Z,94991.78
2018-08-13T14:23:50.183Z,94995.05
2018-08-13T14:26:17.061Z,94980.42
2018-08-13T14:28:43.704Z,94980.34
2018-08-13T14:31:10.420Z,94976.61
2018-08-13T14:33:37.027Z,94980.66
2018-08-13T14:36:03.712Z,94978.95
2018-08-13T14:38:30.365Z,94975.64
2018-08-13T14:40:57.050Z,94989.16
2018-08-13T14:43:23.737Z,94977.74
2018-08-13T14:45:50.381Z,94976.24
2018-08-13T14:48:17.016Z,94972.39
2018-08-13T14:50:43.671Z,94980.83
2018-08-13T14:53:10.357Z,94972.45
2018-08-13T14:55:37.031Z,94973.92
2018-08-13T14:58:03.677Z,94976.77
2018-08-13T15:00:30.417Z,94975.19
2018-08-13T15:02:57.083Z,94969.50
2018-08-13T15:05:24.127Z,94967.95
2018-08-13T15:07:50.812Z,94972.13
2018-08-13T15:10:17.442Z,94965.69
2018-08-13T15:12:44.133Z,94970.95
2018-08-13T15:15:10.758Z,94966.13
2018-08-13T15:17:37.431Z,94962.77
2018-08-13T15:20:04.140Z,94965.75
2018-08-13T15:22:30.791Z,94960.59
2018-08-13T15:24:57.439Z,94961.88
2018-08-13T15:27:24.326Z,94951.46
2018-08-13T15:29:50.761Z,94959.69
2018-08-13T15:32:17.486Z,94956.33
2018-08-13T15:34:44.101Z,94963.00
2018-08-13T15:37:10.732Z,94959.53
2018-08-13T15:39:37.371Z,94957.22
2018-08-13T15:42:04.052Z,94942.89
2018-08-13T15:44:30.703Z,94950.95
2018-08-13T15:46:57.473Z,94948.43
2018-08-13T15:49:24.122Z,94948.14
2018-08-13T15:51:50.761Z,94954.32
2018-08-13T15:54:17.470Z,94949.42
2018-08-13T15:56:44.114Z,94942.38
2018-08-13T15:59:10.763Z,94939.17
2018-08-13T16:01:37.501Z,94936.94
2018-08-13T16:04:04.159Z,94934.61
2018-08-13T16:06:30.859Z,94940.83
2018-08-13T16:08:57.498Z,94942.30
2018-08-13T16:11:24.147Z,94944.48
2018-08-13T16:13:50.787Z,94936.87
2018-08-13T16:16:17.459Z,94931.89
2018-08-13T16:18:44.104Z,94931.82
2018-08-13T16:21:10.763Z,94930.36
2018-08-13T16:23:37.410Z,94931.78
2018-08-13T16:26:04.096Z,94940.37
2018-08-13T16:28:30.780Z,94939.92
2018-08-13T16:30:57.410Z,94940.80
2018-08-13T16:33:24.100Z,94939.05
2018-08-13T16:35:50.724Z,94937.41
2018-08-13T16:38:17.410Z,94938.00
2018-08-13T16:40:44.046Z,94940.87
2018-08-13T16:43:10.677Z,94942.23
2018-08-13T16:45:37.353Z,94938.69
2018-08-13T16:48:04.016Z,94948.48
2018-08-13T16:50:30.641Z,94944.27
2018-08-13T16:52:57.328Z,94944.69
2018-08-13T16:55:23.956Z,94945.44
2018-08-13T16:57:53.635Z,94943.17
2018-08-13T17:00:20.281Z,94930.74
2018-08-13T17:02:46.977Z,94936.77
2018-08-13T17:05:13.629Z,94937.23
2018-08-13T17:07:40.339Z,94934.77
2018-08-13T17:10:07.011Z,94936.34
2018-08-13T17:12:33.646Z,94918.95
2018-08-13T17:15:00.309Z,94940.26
2018-08-13T17:17:26.946Z,94944.17
2018-08-13T17:19:53.579Z,94946.06
2018-08-13T17:22:20.271Z,94946.44
2018-08-13T17:24:46.924Z,94947.03
2018-08-13T17:27:13.581Z,94951.51
2018-08-13T17:29:40.215Z,94950.71
2018-08-13T17:32:06.905Z,94949.97
2018-08-13T17:34:33.532Z,94954.36
2018-08-13T17:37:00.213Z,94962.42
2018-08-13T17:39:26.859Z,94954.63
2018-08-13T17:41:53.500Z,94964.02
2018-08-13T17:44:20.171Z,94961.30
2018-08-13T17:46:46.812Z,94968.28
2018-08-13T17:49:13.492Z,94971.09
2018-08-13T17:51:40.119Z,94978.43
2018-08-13T17:54:06.799Z,94978.00
2018-08-13T17:56:33.429Z,94985.08
2018-08-13T17:59:00.063Z,94983.32
2018-08-13T18:01:26.704Z,94977.90
2018-08-13T18:03:53.337Z,94982.24
2018-08-13T18:06:20.016Z,94979.98
2018-08-13T18:08:46.693Z,94974.80
2018-08-13T18:11:13.367Z,94976.69
2018-08-13T18:13:40.038Z,94987.89
2018-08-13T18:16:09.720Z,94997.70
2018-08-13T18:18:36.409Z,95001.16
2018-08-13T18:21:03.133Z,94997.64
2018-08-13T18:23:29.756Z,95001.33
2018-08-13T18:25:56.430Z,95003.85
2018-08-13T18:28:23.068Z,95000.58
2018-08-13T18:30:49.703Z,95009.25
2018-08-13T18:33:16.380Z,94995.20
2018-08-13T18:35:43.016Z,95002.66
2018-08-13T18:38:09.659Z,95005.53
2018-08-13T18:40:36.301Z,95000.84
2018-08-13T18:43:02.988Z,95005.53
2018-08-13T18:45:29.620Z,95007.30
2018-08-13T18:47:56.305Z,95012.67
2018-08-13T18:50:22.939Z,95015.13
2018-08-13T18:52:49.630Z,95013.56
2018-08-13T18:55:16.314Z,95010.34
2018-08-13T18:57:43.001Z,95008.05
2018-08-13T19:00:09.635Z,95009.45
2018-08-13T19:02:36.274Z,95012.29
2018-08-13T19:05:02.913Z,95012.45
2018-08-13T19:07:29.550Z,95007.48
2018-08-13T19:09:56.483Z,95006.88
2018-08-13T19:12:23.118Z,95007.33
2018-08-13T19:14:49.790Z,95012.73
2018-08-13T19:17:16.429Z,95003.19
2018-08-13T19:19:43.142Z,95003.82
2018-08-13T19:22:09.763Z,95006.69
2018-08-13T19:24:36.397Z,95006.43
2018-08-13T19:27:03.041Z,95008.77
2018-08-13T19:29:29.678Z,95013.91
2018-08-13T19:31:56.314Z,95012.08
2018-08-13T19:34:22.979Z,95011.58
2018-08-13T19:36:49.661Z,95009.17
2018-08-13T19:39:16.298Z,95005.43
2018-08-13T19:41:42.934Z,95009.75
2018-08-13T19:44:09.570Z,95015.16
2018-08-13T19:46:36.212Z,95016.23
2018-08-13T19:49:02.892Z,95019.22
2018-08-13T19:51:29.573Z,95020.92
2018-08-13T19:53:56.208Z,95017.68
2018-08-13T19:56:22.841Z,95025.84
2018-08-13T19:58:49.479Z,95025.75
2018-08-13T20:01:16.109Z,95024.80
2018-08-13T20:03:42.797Z,95025.83
2018-08-13T20:06:09.473Z,95025.12
2018-08-13T20:08:36.108Z,95030.91
2018-08-13T20:11:02.745Z,95029.02
2018-08-13T20:13:29.471Z,95033.82
2018-08-13T20:15:56.066Z,95038.56
2018-08-13T20:18:22.760Z,95036.02
2018-08-13T20:20:49.402Z,95036.90
2018-08-13T20:23:16.082Z,95032.04
2018-08-13T20:25:42.714Z,95032.30
2018-08-13T20:28:09.343Z,95041.14
2018-08-13T20:30:35.990Z,95039.66
2018-08-13T20:33:02.677Z,95037.95
2018-08-13T20:35:29.381Z,95047.92
2018-08-13T20:37:56.017Z,95041.50
2018-08-13T20:40:22.663Z,95043.46
2018-08-13T20:42:49.302Z,95050.58
2018-08-13T20:45:15.995Z,95047.29
2018-08-13T20:47:42.631Z,95051.41
2018-08-13T20:50:09.316Z,95045.91
2018-08-13T20:52:35.950Z,95052.50
2018-08-13T20:55:02.583Z,95056.23
2018-08-13T20:57:29.232Z,95053.42
2018-08-13T20:59:55.921Z,95058.83
2018-08-13T21:02:22.561Z,95056.07
2018-08-13T21:04:49.269Z,95048.60
2018-08-13T21:07:15.881Z,95045.30
2018-08-13T21:09:42.578Z,95044.97
2018-08-13T21:12:09.205Z,95053.31
2018-08-13T21:14:36.017Z,95049.66
2018-08-13T21:17:02.642Z,95052.08
2018-08-13T21:19:29.272Z,95056.55
2018-08-13T21:21:55.920Z,95063.94
2018-08-13T21:24:22.598Z,95071.25
2018-08-13T21:26:49.280Z,95064.39
2018-08-13T21:29:15.918Z,95072.88
2018-08-13T21:31:42.606Z,95072.93
2018-08-13T21:34:12.516Z,95067.08
2018-08-13T21:36:39.205Z,95070.71
2018-08-13T21:39:05.847Z,95068.30
2018-08-13T21:41:32.480Z,95059.96
2018-08-13T21:43:59.312Z,95067.28
2018-08-13T21:46:25.950Z,95057.98
2018-08-13T21:48:52.596Z,95064.09
2018-08-13T21:51:19.277Z,95062.87
2018-08-13T21:53:45.923Z,95059.97
2018-08-13T21:56:12.603Z,95064.53
2018-08-13T21:58:39.285Z,95067.94
2018-08-13T22:01:05.962Z,95066.92
2018-08-13T22:03:32.596Z,95069.25
2018-08-13T22:05:59.241Z,95066.53
2018-08-13T22:08:25.884Z,95066.09
2018-08-13T22:10:52.509Z,95072.02
2018-08-13T22:13:19.149Z,95069.69
2018-08-13T22:15:45.785Z,95064.23
2018-08-13T22:18:12.426Z,95072.42
2018-08-13T22:20:39.068Z,95070.25
2018-08-13T22:23:05.720Z,95077.91
2018-08-13T22:25:32.361Z,95081.16
2018-08-13T22:27:59.002Z,95081.70
2018-08-13T22:30:25.636Z,95079.30
2018-08-13T22:32:52.269Z,95082.29
2018-08-13T22:35:18.911Z,95077.91
2018-08-13T22:37:45.546Z,95081.21
2018-08-13T22:40:12.182Z,95069.27
2018-08-13T22:42:38.808Z,95072.41
2018-08-13T22:45:05.456Z,95062.80
2018-08-13T22:47:32.094Z,95071.41
2018-08-13T22:49:58.734Z,95076.29
2018-08-13T22:52:25.426Z,95071.85
2018-08-13T22:54:52.017Z,95070.31
2018-08-13T22:57:18.658Z,95071.64
2018-08-13T22:59:45.305Z,95068.16
2018-08-13T23:02:11.948Z,95067.53
2018-08-13T23:04:38.630Z,95065.00
2018-08-13T23:07:05.266Z,95067.53
2018-08-13T23:09:31.904Z,95067.55
2018-08-13T23:11:58.552Z,95070.46
2018-08-13T23:14:25.180Z,95062.27
2018-08-13T23:16:51.830Z,95066.28
2018-08-13T23:19:18.510Z,95061.78
2018-08-13T23:21:45.154Z,95060.19
2018-08-13T23:24:11.792Z,95063.17
2018-08-13T23:26:38.429Z,95068.95
2018-08-13T23:29:05.081Z,95064.51
2018-08-13T23:31:31.727Z,95068.37
2018-08-13T23:33:58.365Z,95065.12
2018-08-13T23:36:25.002Z,95063.98
2018-08-13T23:38:51.639Z,95069.01
2018-08-13T23:41:18.277Z,95067.36
2018-08-13T23:43:44.915Z,95064.36
2018-08-13T23:46:11.553Z,95060.77
2018-08-13T23:48:38.207Z,95060.19
2018-08-13T23:51:04.891Z,95062.36
2018-08-13T23:53:31.498Z,95062.22
2018-08-13T23:55:58.137Z,95061.84
2018-08-13T23:58:24.770Z,95069.00
